PWSweather.com
Personal Weather Stations
Station Observations
WODONGA
Wodonga, WodongaAU 3690

WodongaWodongaAU 3690

Lat: -36.121, Lon: 146.87

Elevation: 541

Station Type: Weather Station

http://www.wodongaweather.net

Latest ConditionsUpdated 7:20:02 PM GMT+10:10 Sunday, Apr 19, 2015
Currently Today's Max Today's Min Today's Average
Temperature 52.3°F11.3°C 66.4°F19.1°C 47.7°F8.7°C 55.6°F13.1°C
Dew Point 38.9°F3.8°C 52.6°F11.4°C 38.4°F3.6°C 47.8°F8.8°C
Winds 7.4 mph S11.9 kmh S 9.4 mph WNW15.1 kmh WNW - 4.2 mph 6.8 kmh
Wind Gusts 9.8 mph15.8 kmh 15.2 mph24.5 kmh - -
Humidity 60% 99% 52% 77%
Pressure 30.35 in1027.8 mb 30.35 in1027.8 mb 30.00 in1015.9 mb -
Precipitation - 0.05 in1.3 mm - -
Hour Temp Dew Point Humidity Winds Wind Gusts Pressure Precip Precip Rate Daily Precip Total
07:20 PM 52.3°F11.3°C 38.9°F3.8°C 60% 7.4 mph S11.9 kmh S 9.8 mph15.8 kmh 30.35 in1027.8 mb 0.00 in0.0 mm 0.00 in0.0 mm 0.05 in1.3 mm
07:15 PM 52.3°F11.3°C 38.4°F3.6°C 59% 6.6 mph S10.6 kmh S 9.8 mph15.8 kmh 30.35 in1027.8 mb 0.00 in0.0 mm 0.00 in0.0 mm 0.05 in1.3 mm
07:10 PM 52.5°F11.4°C 38.6°F3.7°C 59% 4.9 mph S7.9 kmh S 7.6 mph12.2 kmh 30.35 in1027.8 mb 0.00 in0.0 mm 0.00 in0.0 mm 0.05 in1.3 mm
07:05 PM 52.7°F11.5°C 38.8°F3.8°C 59% 4.1 mph S6.6 kmh S 6.9 mph11.1 kmh 30.34 in1027.4 mb 0.00 in0.0 mm 0.00 in0.0 mm 0.05 in1.3 mm
07:00 PM 53.1°F11.7°C 38.7°F3.7°C 58% 4.3 mph SSE6.9 kmh SSE 6.9 mph11.1 kmh 30.34 in1027.4 mb 0.00 in0.0 mm 0.00 in0.0 mm 0.05 in1.3 mm
06:55 PM 53.4°F11.9°C 39.0°F3.9°C 58% 4.3 mph SSE6.9 kmh SSE 5.4 mph8.7 kmh 30.33 in1027.1 mb 0.00 in0.0 mm 0.00 in0.0 mm 0.05 in1.3 mm
06:50 PM 53.8°F12.1°C 38.9°F3.8°C 57% 4.8 mph SSE7.7 kmh SSE 6.9 mph11.1 kmh 30.33 in1027.1 mb 0.00 in0.0 mm 0.00 in0.0 mm 0.05 in1.3 mm
06:45 PM 54.1°F12.3°C 39.3°F4.1°C 57% 5.4 mph SSE8.7 kmh SSE 7.6 mph12.2 kmh 30.33 in1027.1 mb 0.00 in0.0 mm 0.00 in0.0 mm 0.05 in1.3 mm
06:40 PM 54.5°F12.5°C 39.6°F4.2°C 57% 4.6 mph S7.4 kmh S 7.6 mph12.2 kmh 30.33 in1027.1 mb 0.00 in0.0 mm 0.00 in0.0 mm 0.05 in1.3 mm
06:35 PM 54.7°F12.6°C 39.3°F4.1°C 56% 4.3 mph S6.9 kmh S 7.6 mph12.2 kmh 30.33 in1027.1 mb 0.00 in0.0 mm 0.00 in0.0 mm 0.05 in1.3 mm
06:30 PM 55.2°F12.9°C 39.8°F4.3°C 56% 5.7 mph SSE9.2 kmh SSE 8.3 mph13.4 kmh 30.32 in1026.8 mb 0.00 in0.0 mm 0.00 in0.0 mm 0.05 in1.3 mm
06:25 PM 55.4°F13.0°C 40.0°F4.4°C 56% 5.1 mph SSE8.2 kmh SSE 8.3 mph13.4 kmh 30.32 in1026.8 mb 0.00 in0.0 mm 0.00 in0.0 mm 0.05 in1.3 mm
06:20 PM 55.4°F13.0°C 40.0°F4.4°C 56% 4.0 mph SSE6.4 kmh SSE 6.0 mph9.7 kmh 30.31 in1026.4 mb 0.00 in0.0 mm 0.00 in0.0 mm 0.05 in1.3 mm
06:15 PM 55.6°F13.1°C 40.1°F4.5°C 56% 4.3 mph SSE6.9 kmh SSE 6.0 mph9.7 kmh 30.31 in1026.4 mb 0.00 in0.0 mm 0.00 in0.0 mm 0.05 in1.3 mm
06:10 PM 55.8°F13.2°C 39.8°F4.3°C 55% 4.0 mph S6.4 kmh S 5.4 mph8.7 kmh 30.30 in1026.1 mb 0.00 in0.0 mm 0.00 in0.0 mm 0.05 in1.3 mm
06:05 PM 55.9°F13.3°C 40.0°F4.4°C 55% 4.1 mph S6.6 kmh S 6.0 mph9.7 kmh 30.30 in1026.1 mb 0.00 in0.0 mm 0.00 in0.0 mm 0.05 in1.3 mm
06:00 PM 56.1°F13.4°C 40.2°F4.6°C 55% 4.0 mph S6.4 kmh S 6.0 mph9.7 kmh 30.30 in1026.1 mb 0.00 in0.0 mm 0.00 in0.0 mm 0.05 in1.3 mm
05:55 PM 56.5°F13.6°C 40.5°F4.7°C 55% 4.5 mph S7.2 kmh S 6.9 mph11.1 kmh 30.29 in1025.7 mb 0.00 in0.0 mm 0.00 in0.0 mm 0.05 in1.3 mm
05:50 PM 56.5°F13.6°C 40.0°F4.4°C 54% 4.9 mph S7.9 kmh S 6.9 mph11.1 kmh 30.29 in1025.7 mb 0.00 in0.0 mm 0.00 in0.0 mm 0.05 in1.3 mm
05:45 PM 56.8°F13.8°C 40.4°F4.7°C 54% 5.1 mph SSE8.2 kmh SSE 6.9 mph11.1 kmh 30.28 in1025.4 mb 0.00 in0.0 mm 0.00 in0.0 mm 0.05 in1.3 mm
05:40 PM 57.2°F14.0°C 40.7°F4.8°C 54% 5.7 mph SSE9.2 kmh SSE 7.6 mph12.2 kmh 30.28 in1025.4 mb 0.00 in0.0 mm 0.00 in0.0 mm 0.05 in1.3 mm
05:35 PM 57.7°F14.3°C 41.2°F5.1°C 54% 5.3 mph SE8.5 kmh SE 8.3 mph13.4 kmh 30.27 in1025.1 mb 0.00 in0.0 mm 0.00 in0.0 mm 0.05 in1.3 mm
05:30 PM 57.9°F14.4°C 40.9°F4.9°C 53% 5.8 mph SE9.3 kmh SE 8.3 mph13.4 kmh 30.27 in1025.1 mb 0.00 in0.0 mm 0.00 in0.0 mm 0.05 in1.3 mm
05:25 PM 58.3°F14.6°C 41.2°F5.1°C 53% 6.3 mph SSE10.1 kmh SSE 8.3 mph13.4 kmh 30.28 in1025.4 mb 0.00 in0.0 mm 0.00 in0.0 mm 0.05 in1.3 mm
05:20 PM 58.5°F14.7°C 41.4°F5.2°C 53% 7.3 mph S11.7 kmh S 12.1 mph19.5 kmh 30.27 in1025.1 mb 0.00 in0.0 mm 0.00 in0.0 mm 0.05 in1.3 mm
05:15 PM 58.8°F14.9°C 41.2°F5.1°C 52% 8.8 mph S14.2 kmh S 12.1 mph19.5 kmh 30.27 in1025.1 mb 0.00 in0.0 mm 0.00 in0.0 mm 0.05 in1.3 mm
05:10 PM 59.2°F15.1°C 42.1°F5.6°C 53% 8.7 mph S14.0 kmh S 10.7 mph17.2 kmh 30.26 in1024.7 mb 0.00 in0.0 mm 0.00 in0.0 mm 0.05 in1.3 mm
05:05 PM 59.2°F15.1°C 42.1°F5.6°C 53% 7.5 mph S12.1 kmh S 9.8 mph15.8 kmh 30.26 in1024.7 mb 0.00 in0.0 mm 0.00 in0.0 mm 0.05 in1.3 mm
05:00 PM 59.0°F15.0°C 41.9°F5.5°C 53% 6.6 mph S10.6 kmh S 9.8 mph15.8 kmh 30.26 in1024.7 mb 0.00 in0.0 mm 0.00 in0.0 mm 0.05 in1.3 mm
04:55 PM 59.0°F15.0°C 42.4°F5.8°C 54% 5.9 mph S9.5 kmh S 9.8 mph15.8 kmh 30.25 in1024.4 mb 0.00 in0.0 mm 0.00 in0.0 mm 0.05 in1.3 mm
04:50 PM 59.2°F15.1°C 43.5°F6.4°C 56% 4.4 mph S7.1 kmh S 6.9 mph11.1 kmh 30.25 in1024.4 mb 0.00 in0.0 mm 0.00 in0.0 mm 0.05 in1.3 mm
04:45 PM 59.7°F15.4°C 44.5°F6.9°C 57% 3.5 mph S5.6 kmh S 4.5 mph7.2 kmh 30.25 in1024.4 mb 0.00 in0.0 mm 0.00 in0.0 mm 0.05 in1.3 mm
04:40 PM 60.1°F15.6°C 44.3°F6.8°C 56% 3.5 mph S5.6 kmh S 5.4 mph8.7 kmh 30.24 in1024.0 mb 0.00 in0.0 mm 0.00 in0.0 mm 0.05 in1.3 mm
04:35 PM 60.6°F15.9°C 44.9°F7.2°C 56% 4.8 mph SE7.7 kmh SE 7.6 mph12.2 kmh 30.24 in1024.0 mb 0.00 in0.0 mm 0.00 in0.0 mm 0.05 in1.3 mm
04:30 PM 61.5°F16.4°C 45.2°F7.3°C 55% 6.4 mph ESE10.3 kmh ESE 8.3 mph13.4 kmh 30.25 in1024.4 mb 0.00 in0.0 mm 0.00 in0.0 mm 0.05 in1.3 mm
04:25 PM 62.2°F16.8°C 45.9°F7.7°C 55% 6.2 mph E10.0 kmh E 8.3 mph13.4 kmh 30.24 in1024.0 mb 0.00 in0.0 mm 0.00 in0.0 mm 0.05 in1.3 mm
04:20 PM 63.3°F17.4°C 46.4°F8.0°C 54% 5.4 mph E8.7 kmh E 7.6 mph12.2 kmh 30.23 in1023.7 mb 0.00 in0.0 mm 0.00 in0.0 mm 0.05 in1.3 mm
04:15 PM 63.3°F17.4°C 46.4°F8.0°C 54% 5.8 mph SE9.3 kmh SE 7.6 mph12.2 kmh 30.24 in1024.0 mb 0.00 in0.0 mm 0.00 in0.0 mm 0.05 in1.3 mm
04:10 PM 63.7°F17.6°C 47.2°F8.4°C 55% 6.0 mph SE9.7 kmh SE 7.6 mph12.2 kmh 30.24 in1024.0 mb 0.00 in0.0 mm 0.00 in0.0 mm 0.05 in1.3 mm
04:05 PM 63.7°F17.6°C 47.2°F8.4°C 55% 6.2 mph SE10.0 kmh SE 8.3 mph13.4 kmh 30.23 in1023.7 mb 0.00 in0.0 mm 0.00 in0.0 mm 0.05 in1.3 mm
04:00 PM 63.5°F17.5°C 47.5°F8.6°C 56% 6.4 mph SE10.3 kmh SE 8.3 mph13.4 kmh 30.23 in1023.7 mb 0.00 in0.0 mm 0.00 in0.0 mm 0.05 in1.3 mm
03:55 PM 63.3°F17.4°C 46.9°F8.3°C 55% 7.1 mph SE11.4 kmh SE 9.2 mph14.8 kmh 30.22 in1023.4 mb 0.00 in0.0 mm 0.00 in0.0 mm 0.05 in1.3 mm
03:50 PM 63.1°F17.3°C 47.2°F8.4°C 56% 7.1 mph SE11.4 kmh SE 12.1 mph19.5 kmh 30.22 in1023.4 mb 0.00 in0.0 mm 0.00 in0.0 mm 0.05 in1.3 mm
03:45 PM 62.4°F16.9°C 47.0°F8.3°C 57% 5.9 mph SE9.5 kmh SE 12.1 mph19.5 kmh 30.22 in1023.4 mb 0.00 in0.0 mm 0.00 in0.0 mm 0.05 in1.3 mm
03:40 PM 61.5°F16.4°C 45.7°F7.6°C 56% 3.7 mph SE6.0 kmh SE 8.3 mph13.4 kmh 30.22 in1023.4 mb 0.00 in0.0 mm 0.00 in0.0 mm 0.05 in1.3 mm
03:35 PM 62.1°F16.7°C 46.2°F7.9°C 56% 2.2 mph S3.5 kmh S 5.4 mph8.7 kmh 30.22 in1023.4 mb 0.00 in0.0 mm 0.00 in0.0 mm 0.05 in1.3 mm
03:30 PM 62.1°F16.7°C 46.2°F7.9°C 56% 4.6 mph SE7.4 kmh SE 8.3 mph13.4 kmh 30.22 in1023.4 mb 0.00 in0.0 mm 0.00 in0.0 mm 0.05 in1.3 mm
03:25 PM 62.2°F16.8°C 46.8°F8.2°C 57% 7.2 mph E11.6 kmh E 9.2 mph14.8 kmh 30.22 in1023.4 mb 0.00 in0.0 mm 0.00 in0.0 mm 0.05 in1.3 mm
03:20 PM 61.9°F16.6°C 46.0°F7.8°C 56% 6.8 mph E10.9 kmh E 11.4 mph18.3 kmh 30.21 in1023.0 mb 0.00 in0.0 mm 0.00 in0.0 mm 0.05 in1.3 mm
03:15 PM 63.1°F17.3°C 46.7°F8.2°C 55% 7.9 mph ESE12.7 kmh ESE 11.4 mph18.3 kmh 30.21 in1023.0 mb 0.00 in0.0 mm 0.00 in0.0 mm 0.05 in1.3 mm
03:10 PM 64.4°F18.0°C 47.4°F8.6°C 54% 9.3 mph E15.0 kmh E 11.4 mph18.3 kmh 30.21 in1023.0 mb 0.00 in0.0 mm 0.00 in0.0 mm 0.05 in1.3 mm
03:05 PM 64.6°F18.1°C 48.1°F8.9°C 55% 8.6 mph E13.8 kmh E 10.7 mph17.2 kmh 30.20 in1022.7 mb 0.00 in0.0 mm 0.00 in0.0 mm 0.05 in1.3 mm
03:00 PM 64.4°F18.0°C 48.4°F9.1°C 56% 8.8 mph ESE14.2 kmh ESE 13.0 mph20.9 kmh 30.21 in1023.0 mb 0.00 in0.0 mm 0.00 in0.0 mm 0.05 in1.3 mm
02:55 PM 64.0°F17.8°C 48.5°F9.2°C 57% 8.0 mph E12.9 kmh E 13.0 mph20.9 kmh 30.20 in1022.7 mb 0.00 in0.0 mm 0.00 in0.0 mm 0.05 in1.3 mm
02:50 PM 63.0°F17.2°C 48.4°F9.1°C 59% 6.4 mph ESE10.3 kmh ESE 9.2 mph14.8 kmh 30.20 in1022.7 mb 0.00 in0.0 mm 0.00 in0.0 mm 0.05 in1.3 mm
02:45 PM 61.9°F16.6°C 47.4°F8.6°C 59% 5.0 mph ESE8.0 kmh ESE 8.3 mph13.4 kmh 30.20 in1022.7 mb 0.00 in0.0 mm 0.00 in0.0 mm 0.05 in1.3 mm
02:40 PM 61.9°F16.6°C 47.4°F8.6°C 59% 3.7 mph SE6.0 kmh SE 8.3 mph13.4 kmh 30.20 in1022.7 mb 0.00 in0.0 mm 0.00 in0.0 mm 0.05 in1.3 mm
02:35 PM 62.2°F16.8°C 47.7°F8.7°C 59% 5.0 mph SE8.0 kmh SE 9.2 mph14.8 kmh 30.20 in1022.7 mb 0.00 in0.0 mm 0.00 in0.0 mm 0.05 in1.3 mm
02:30 PM 62.4°F16.9°C 47.0°F8.3°C 57% 6.2 mph E10.0 kmh E 9.2 mph14.8 kmh 30.20 in1022.7 mb 0.00 in0.0 mm 0.00 in0.0 mm 0.05 in1.3 mm
02:25 PM 64.0°F17.8°C 47.6°F8.7°C 55% 5.5 mph NNE8.9 kmh NNE 8.3 mph13.4 kmh 30.19 in1022.4 mb 0.00 in0.0 mm 0.00 in0.0 mm 0.05 in1.3 mm
02:20 PM 64.6°F18.1°C 49.5°F9.7°C 58% 6.3 mph E10.1 kmh E 9.2 mph14.8 kmh 30.19 in1022.4 mb 0.00 in0.0 mm 0.00 in0.0 mm 0.05 in1.3 mm
02:15 PM 64.2°F17.9°C 49.6°F9.8°C 59% 6.6 mph E10.6 kmh E 9.2 mph14.8 kmh 30.20 in1022.7 mb 0.00 in0.0 mm 0.00 in0.0 mm 0.05 in1.3 mm
02:10 PM 63.0°F17.2°C 49.3°F9.6°C 61% 4.4 mph ESE7.1 kmh ESE 9.2 mph14.8 kmh 30.20 in1022.7 mb 0.00 in0.0 mm 0.00 in0.0 mm 0.05 in1.3 mm
02:05 PM 61.5°F16.4°C 48.0°F8.9°C 61% 3.4 mph ESE5.5 kmh ESE 4.5 mph7.2 kmh 30.20 in1022.7 mb 0.00 in0.0 mm 0.00 in0.0 mm 0.05 in1.3 mm
02:00 PM 61.3°F16.3°C 47.8°F8.8°C 61% 3.9 mph E6.3 kmh E 5.4 mph8.7 kmh 30.20 in1022.7 mb 0.00 in0.0 mm 0.00 in0.0 mm 0.05 in1.3 mm
01:55 PM 61.5°F16.4°C 47.5°F8.6°C 60% 4.2 mph SE6.8 kmh SE 6.0 mph9.7 kmh 30.20 in1022.7 mb 0.00 in0.0 mm 0.00 in0.0 mm 0.05 in1.3 mm
01:50 PM 61.5°F16.4°C 47.5°F8.6°C 60% 4.5 mph SE7.2 kmh SE 8.3 mph13.4 kmh 30.19 in1022.4 mb 0.00 in0.0 mm 0.00 in0.0 mm 0.05 in1.3 mm
01:45 PM 61.9°F16.6°C 47.0°F8.3°C 58% 5.5 mph ESE8.9 kmh ESE 9.2 mph14.8 kmh 30.19 in1022.4 mb 0.00 in0.0 mm 0.00 in0.0 mm 0.05 in1.3 mm
01:40 PM 63.0°F17.2°C 48.0°F8.9°C 58% 6.8 mph E10.9 kmh E 10.7 mph17.2 kmh 30.19 in1022.4 mb 0.00 in0.0 mm 0.00 in0.0 mm 0.05 in1.3 mm
01:35 PM 64.6°F18.1°C 48.5°F9.2°C 56% 7.5 mph E12.1 kmh E 10.7 mph17.2 kmh 30.19 in1022.4 mb 0.00 in0.0 mm 0.00 in0.0 mm 0.05 in1.3 mm
01:30 PM 66.2°F19.0°C 49.6°F9.8°C 55% 7.6 mph ESE12.2 kmh ESE 10.7 mph17.2 kmh 30.19 in1022.4 mb 0.00 in0.0 mm 0.00 in0.0 mm 0.05 in1.3 mm
01:25 PM 65.1°F18.4°C 50.9°F10.5°C 60% 7.0 mph E11.3 kmh E 9.2 mph14.8 kmh 30.19 in1022.4 mb 0.00 in0.0 mm 0.00 in0.0 mm 0.05 in1.3 mm
01:20 PM 63.7°F17.6°C 49.6°F9.8°C 60% 6.3 mph E10.1 kmh E 9.2 mph14.8 kmh 30.19 in1022.4 mb 0.00 in0.0 mm 0.00 in0.0 mm 0.05 in1.3 mm
01:15 PM 63.1°F17.3°C 49.0°F9.4°C 60% 5.6 mph E9.0 kmh E 7.6 mph12.2 kmh 30.19 in1022.4 mb 0.00 in0.0 mm 0.00 in0.0 mm 0.05 in1.3 mm
01:10 PM 63.7°F17.6°C 50.4°F10.2°C 62% 4.8 mph ESE7.7 kmh ESE 7.6 mph12.2 kmh 30.19 in1022.4 mb 0.00 in0.0 mm 0.00 in0.0 mm 0.05 in1.3 mm
01:05 PM 63.7°F17.6°C 50.4°F10.2°C 62% 4.2 mph ESE6.8 kmh ESE 6.0 mph9.7 kmh 30.19 in1022.4 mb 0.00 in0.0 mm 0.00 in0.0 mm 0.05 in1.3 mm
01:00 PM 63.0°F17.2°C 50.2°F10.1°C 63% 4.6 mph SE7.4 kmh SE 6.0 mph9.7 kmh 30.19 in1022.4 mb 0.00 in0.0 mm 0.00 in0.0 mm 0.05 in1.3 mm
12:55 PM 62.1°F16.7°C 50.2°F10.1°C 65% 4.8 mph SE7.7 kmh SE 7.6 mph12.2 kmh 30.19 in1022.4 mb 0.00 in0.0 mm 0.00 in0.0 mm 0.05 in1.3 mm
12:50 PM 62.2°F16.8°C 49.9°F9.9°C 64% 5.8 mph ESE9.3 kmh ESE 9.2 mph14.8 kmh 30.19 in1022.4 mb 0.00 in0.0 mm 0.00 in0.0 mm 0.05 in1.3 mm
12:45 PM 62.2°F16.8°C 49.9°F9.9°C 64% 6.3 mph ESE10.1 kmh ESE 9.2 mph14.8 kmh 30.19 in1022.4 mb 0.00 in0.0 mm 0.00 in0.0 mm 0.05 in1.3 mm
12:40 PM 63.0°F17.2°C 49.8°F9.9°C 62% 5.8 mph ESE9.3 kmh ESE 9.8 mph15.8 kmh 30.19 in1022.4 mb 0.00 in0.0 mm 0.00 in0.0 mm 0.05 in1.3 mm
12:35 PM 64.4°F18.0°C 50.7°F10.4°C 61% 7.1 mph SE11.4 kmh SE 15.2 mph24.5 kmh 30.19 in1022.4 mb 0.00 in0.0 mm 0.00 in0.0 mm 0.05 in1.3 mm
12:30 PM 65.1°F18.4°C 50.9°F10.5°C 60% 7.3 mph SE11.7 kmh SE 15.2 mph24.5 kmh 30.19 in1022.4 mb 0.00 in0.0 mm 0.00 in0.0 mm 0.05 in1.3 mm
12:25 PM 66.4°F19.1°C 50.7°F10.4°C 57% 6.6 mph SSE10.6 kmh SSE 8.3 mph13.4 kmh 30.19 in1022.4 mb 0.00 in0.0 mm 0.00 in0.0 mm 0.05 in1.3 mm
12:20 PM 66.2°F19.0°C 51.0°F10.6°C 58% 6.8 mph SE10.9 kmh SE 11.4 mph18.3 kmh 30.19 in1022.4 mb 0.00 in0.0 mm 0.00 in0.0 mm 0.05 in1.3 mm
12:15 PM 64.9°F18.3°C 52.5°F11.4°C 64% 6.6 mph SE10.6 kmh SE 11.4 mph18.3 kmh 30.19 in1022.4 mb 0.00 in0.0 mm 0.00 in0.0 mm 0.05 in1.3 mm
12:10 PM 63.1°F17.3°C 50.4°F10.2°C 63% 5.7 mph SE9.2 kmh SE 8.3 mph13.4 kmh 30.19 in1022.4 mb 0.00 in0.0 mm 0.00 in0.0 mm 0.05 in1.3 mm
12:05 PM 62.2°F16.8°C 49.5°F9.7°C 63% 4.6 mph SE7.4 kmh SE 6.9 mph11.1 kmh 30.19 in1022.4 mb 0.00 in0.0 mm 0.00 in0.0 mm 0.05 in1.3 mm
12:00 PM 61.3°F16.3°C 49.1°F9.5°C 64% 4.5 mph SE7.2 kmh SE 6.0 mph9.7 kmh 30.19 in1022.4 mb 0.00 in0.0 mm 0.00 in0.0 mm 0.05 in1.3 mm
11:55 AM 59.9°F15.5°C 48.1°F8.9°C 65% 5.6 mph SE9.0 kmh SE 6.9 mph11.1 kmh 30.19 in1022.4 mb 0.00 in0.0 mm 0.00 in0.0 mm 0.05 in1.3 mm
11:50 AM 59.5°F15.3°C 47.8°F8.8°C 65% 5.8 mph SE9.3 kmh SE 7.6 mph12.2 kmh 30.19 in1022.4 mb 0.00 in0.0 mm 0.00 in0.0 mm 0.05 in1.3 mm
11:45 AM 59.2°F15.1°C 47.4°F8.6°C 65% 6.4 mph SSE10.3 kmh SSE 9.2 mph14.8 kmh 30.19 in1022.4 mb 0.00 in0.0 mm 0.00 in0.0 mm 0.05 in1.3 mm
11:40 AM 59.4°F15.2°C 47.6°F8.7°C 65% 7.1 mph SSE11.4 kmh SSE 9.2 mph14.8 kmh 30.19 in1022.4 mb 0.00 in0.0 mm 0.00 in0.0 mm 0.05 in1.3 mm
11:35 AM 59.5°F15.3°C 48.6°F9.2°C 67% 5.9 mph SSE9.5 kmh SSE 9.2 mph14.8 kmh 30.19 in1022.4 mb 0.00 in0.0 mm 0.00 in0.0 mm 0.05 in1.3 mm
11:30 AM 59.5°F15.3°C 49.0°F9.4°C 68% 4.3 mph SSE6.9 kmh SSE 7.6 mph12.2 kmh 30.18 in1022.0 mb 0.01 in0.3 mm 0.00 in0.0 mm 0.05 in1.3 mm
11:25 AM 59.5°F15.3°C 49.0°F9.4°C 68% 3.6 mph S5.8 kmh S 5.4 mph8.7 kmh 30.18 in1022.0 mb 0.01 in0.3 mm 0.00 in0.0 mm 0.05 in1.3 mm
11:20 AM 59.4°F15.2°C 49.6°F9.8°C 70% 3.5 mph S5.6 kmh S 5.4 mph8.7 kmh 30.18 in1022.0 mb 0.01 in0.3 mm 0.00 in0.0 mm 0.05 in1.3 mm
11:15 AM 59.2°F15.1°C 49.4°F9.7°C 70% 3.2 mph SSE5.1 kmh SSE 6.0 mph9.7 kmh 30.18 in1022.0 mb 0.01 in0.3 mm 0.00 in0.0 mm 0.05 in1.3 mm
11:10 AM 59.0°F15.0°C 49.2°F9.6°C 70% 3.7 mph SE6.0 kmh SE 6.0 mph9.7 kmh 30.18 in1022.0 mb 0.01 in0.3 mm 0.00 in0.0 mm 0.05 in1.3 mm
11:05 AM 59.2°F15.1°C 49.4°F9.7°C 70% 3.6 mph SE5.8 kmh SE 6.0 mph9.7 kmh 30.18 in1022.0 mb 0.01 in0.3 mm 0.00 in0.0 mm 0.05 in1.3 mm
11:00 AM 59.7°F15.4°C 49.9°F9.9°C 70% 3.1 mph SE5.0 kmh SE 5.4 mph8.7 kmh 30.18 in1022.0 mb 0.01 in0.3 mm 0.00 in0.0 mm 0.05 in1.3 mm
10:55 AM 60.6°F15.9°C 50.4°F10.2°C 69% 3.0 mph SE4.8 kmh SE 4.5 mph7.2 kmh 30.18 in1022.0 mb 0.01 in0.3 mm 0.00 in0.0 mm 0.05 in1.3 mm
10:50 AM 61.5°F16.4°C 51.3°F10.7°C 69% 3.2 mph SSW5.1 kmh SSW 5.4 mph8.7 kmh 30.18 in1022.0 mb 0.01 in0.3 mm 0.00 in0.0 mm 0.05 in1.3 mm
10:45 AM 62.1°F16.7°C 52.2°F11.2°C 70% 3.7 mph SW6.0 kmh SW 5.4 mph8.7 kmh 30.18 in1022.0 mb 0.01 in0.3 mm 0.00 in0.0 mm 0.05 in1.3 mm
10:40 AM 61.0°F16.1°C 52.6°F11.4°C 74% 4.1 mph S6.6 kmh S 5.4 mph8.7 kmh 30.18 in1022.0 mb 0.01 in0.3 mm 0.00 in0.0 mm 0.05 in1.3 mm
10:35 AM 59.0°F15.0°C 50.7°F10.4°C 74% 4.4 mph SSW7.1 kmh SSW 6.0 mph9.7 kmh 30.17 in1021.7 mb 0.01 in0.3 mm 0.12 in3.0 mm 0.05 in1.3 mm
10:30 AM 57.6°F14.2°C 50.1°F10.1°C 76% 4.6 mph SSW7.4 kmh SSW 6.0 mph9.7 kmh 30.17 in1021.7 mb 0.00 in0.0 mm 0.00 in0.0 mm 0.04 in1.0 mm
10:25 AM 56.7°F13.7°C 49.9°F9.9°C 78% 4.4 mph SSW7.1 kmh SSW 6.0 mph9.7 kmh 30.17 in1021.7 mb 0.00 in0.0 mm 0.00 in0.0 mm 0.04 in1.0 mm
10:20 AM 55.9°F13.3°C 48.8°F9.3°C 77% 4.2 mph W6.8 kmh W 6.0 mph9.7 kmh 30.17 in1021.7 mb 0.00 in0.0 mm 0.00 in0.0 mm 0.04 in1.0 mm
10:15 AM 55.6°F13.1°C 48.8°F9.3°C 78% 4.0 mph WSW6.4 kmh WSW 6.0 mph9.7 kmh 30.17 in1021.7 mb 0.00 in0.0 mm 0.00 in0.0 mm 0.04 in1.0 mm
10:10 AM 55.0°F12.8°C 48.3°F9.1°C 78% 3.6 mph SW5.8 kmh SW 6.9 mph11.1 kmh 30.17 in1021.7 mb 0.00 in0.0 mm 0.00 in0.0 mm 0.04 in1.0 mm
10:05 AM 54.9°F12.7°C 48.1°F8.9°C 78% 4.8 mph SW7.7 kmh SW 6.9 mph11.1 kmh 30.17 in1021.7 mb 0.00 in0.0 mm 0.00 in0.0 mm 0.04 in1.0 mm
10:00 AM 54.7°F12.6°C 48.0°F8.9°C 78% 4.4 mph SSW7.1 kmh SSW 6.9 mph11.1 kmh 30.17 in1021.7 mb 0.00 in0.0 mm 0.00 in0.0 mm 0.04 in1.0 mm
09:55 AM 54.5°F12.5°C 47.8°F8.8°C 78% 3.2 mph SW5.1 kmh SW 6.0 mph9.7 kmh 30.16 in1021.3 mb 0.00 in0.0 mm 0.00 in0.0 mm 0.04 in1.0 mm
09:50 AM 54.3°F12.4°C 47.6°F8.7°C 78% 3.1 mph SW5.0 kmh SW 5.4 mph8.7 kmh 30.16 in1021.3 mb 0.00 in0.0 mm 0.00 in0.0 mm 0.04 in1.0 mm
09:45 AM 54.0°F12.2°C 47.6°F8.7°C 79% 3.7 mph SW6.0 kmh SW 6.9 mph11.1 kmh 30.16 in1021.3 mb 0.00 in0.0 mm 0.00 in0.0 mm 0.04 in1.0 mm
09:40 AM 53.6°F12.0°C 47.3°F8.5°C 79% 4.7 mph SSW7.6 kmh SSW 7.6 mph12.2 kmh 30.16 in1021.3 mb 0.00 in0.0 mm 0.00 in0.0 mm 0.04 in1.0 mm
09:35 AM 53.6°F12.0°C 46.9°F8.3°C 78% 5.6 mph SW9.0 kmh SW 8.3 mph13.4 kmh 30.16 in1021.3 mb 0.00 in0.0 mm 0.00 in0.0 mm 0.04 in1.0 mm
09:30 AM 54.0°F12.2°C 47.3°F8.5°C 78% 4.8 mph WSW7.7 kmh WSW 8.3 mph13.4 kmh 30.16 in1021.3 mb 0.00 in0.0 mm 0.00 in0.0 mm 0.04 in1.0 mm
09:25 AM 54.5°F12.5°C 47.8°F8.8°C 78% 3.8 mph W6.1 kmh W 8.3 mph13.4 kmh 30.16 in1021.3 mb 0.00 in0.0 mm 0.00 in0.0 mm 0.04 in1.0 mm
09:20 AM 55.0°F12.8°C 48.0°F8.9°C 77% 3.9 mph WNW6.3 kmh WNW 8.3 mph13.4 kmh 30.15 in1021.0 mb 0.00 in0.0 mm 0.00 in0.0 mm 0.04 in1.0 mm
09:15 AM 55.0°F12.8°C 48.7°F9.3°C 79% 3.8 mph SW6.1 kmh SW 6.0 mph9.7 kmh 30.16 in1021.3 mb 0.00 in0.0 mm 0.00 in0.0 mm 0.04 in1.0 mm
09:10 AM 54.5°F12.5°C 47.8°F8.8°C 78% 4.4 mph SSW7.1 kmh SSW 7.6 mph12.2 kmh 30.15 in1021.0 mb 0.00 in0.0 mm 0.00 in0.0 mm 0.04 in1.0 mm
09:05 AM 54.7°F12.6°C 48.3°F9.1°C 79% 5.0 mph WSW8.0 kmh WSW 9.8 mph15.8 kmh 30.15 in1021.0 mb 0.00 in0.0 mm 0.00 in0.0 mm 0.04 in1.0 mm
09:00 AM 54.7°F12.6°C 48.0°F8.9°C 78% 4.7 mph W7.6 kmh W 9.8 mph15.8 kmh 30.14 in1020.7 mb 0.00 in0.0 mm 0.00 in0.0 mm 0.04 in1.0 mm
08:55 AM 54.5°F12.5°C 48.8°F9.3°C 81% 4.3 mph W6.9 kmh W 6.9 mph11.1 kmh 30.14 in1020.7 mb 0.00 in0.0 mm 0.00 in0.0 mm 0.04 in1.0 mm
08:50 AM 53.6°F12.0°C 48.2°F9.0°C 82% 4.8 mph W7.7 kmh W 6.9 mph11.1 kmh 30.14 in1020.7 mb 0.00 in0.0 mm 0.00 in0.0 mm 0.04 in1.0 mm
08:45 AM 53.1°F11.7°C 47.7°F8.7°C 82% 5.9 mph SW9.5 kmh SW 11.4 mph18.3 kmh 30.15 in1021.0 mb 0.00 in0.0 mm 0.00 in0.0 mm 0.04 in1.0 mm
08:40 AM 52.3°F11.3°C 47.3°F8.5°C 83% 6.5 mph SW10.5 kmh SW 11.4 mph18.3 kmh 30.15 in1021.0 mb 0.00 in0.0 mm 0.00 in0.0 mm 0.04 in1.0 mm
08:35 AM 51.8°F11.0°C 47.4°F8.6°C 85% 5.9 mph WSW9.5 kmh WSW 7.6 mph12.2 kmh 30.14 in1020.7 mb 0.00 in0.0 mm 0.00 in0.0 mm 0.04 in1.0 mm
08:30 AM 51.3°F10.7°C 46.9°F8.3°C 85% 5.6 mph WSW9.0 kmh WSW 11.4 mph18.3 kmh 30.14 in1020.7 mb 0.00 in0.0 mm 0.00 in0.0 mm 0.04 in1.0 mm
08:25 AM 50.9°F10.5°C 46.9°F8.3°C 86% 5.3 mph WSW8.5 kmh WSW 11.4 mph18.3 kmh 30.14 in1020.7 mb 0.00 in0.0 mm 0.00 in0.0 mm 0.04 in1.0 mm
08:20 AM 50.5°F10.3°C 46.8°F8.2°C 87% 5.4 mph WSW8.7 kmh WSW 9.8 mph15.8 kmh 30.14 in1020.7 mb 0.00 in0.0 mm 0.00 in0.0 mm 0.04 in1.0 mm
08:15 AM 50.2°F10.1°C 46.5°F8.1°C 87% 5.2 mph WSW8.4 kmh WSW 9.8 mph15.8 kmh 30.13 in1020.3 mb 0.00 in0.0 mm 0.00 in0.0 mm 0.04 in1.0 mm
08:10 AM 49.8°F9.9°C 46.4°F8.0°C 88% 5.1 mph WSW8.2 kmh WSW 7.6 mph12.2 kmh 30.13 in1020.3 mb 0.00 in0.0 mm 0.00 in0.0 mm 0.04 in1.0 mm
08:05 AM 49.5°F9.7°C 46.1°F7.8°C 88% 5.5 mph W8.9 kmh W 7.6 mph12.2 kmh 30.12 in1020.0 mb 0.00 in0.0 mm 0.00 in0.0 mm 0.04 in1.0 mm
08:00 AM 49.3°F9.6°C 46.2°F7.9°C 89% 7.0 mph W11.3 kmh W 11.4 mph18.3 kmh 30.12 in1020.0 mb 0.00 in0.0 mm 0.00 in0.0 mm 0.04 in1.0 mm
07:55 AM 48.9°F9.4°C 45.8°F7.7°C 89% 6.7 mph WSW10.8 kmh WSW 11.4 mph18.3 kmh 30.11 in1019.6 mb 0.00 in0.0 mm 0.00 in0.0 mm 0.04 in1.0 mm
07:50 AM 48.7°F9.3°C 45.9°F7.7°C 90% 6.1 mph W9.8 kmh W 9.2 mph14.8 kmh 30.11 in1019.6 mb 0.00 in0.0 mm 0.00 in0.0 mm 0.04 in1.0 mm
07:45 AM 48.6°F9.2°C 45.8°F7.7°C 90% 5.8 mph W9.3 kmh W 9.2 mph14.8 kmh 30.11 in1019.6 mb 0.00 in0.0 mm 0.00 in0.0 mm 0.04 in1.0 mm
07:40 AM 47.7°F8.7°C 45.2°F7.3°C 91% 3.6 mph SW5.8 kmh SW 6.0 mph9.7 kmh 30.11 in1019.6 mb 0.00 in0.0 mm 0.00 in0.0 mm 0.04 in1.0 mm
07:35 AM 48.6°F9.2°C 46.1°F7.8°C 91% 3.5 mph WSW5.6 kmh WSW 5.4 mph8.7 kmh 30.11 in1019.6 mb 0.00 in0.0 mm 0.00 in0.0 mm 0.04 in1.0 mm
07:30 AM 48.4°F9.1°C 45.9°F7.7°C 91% 4.1 mph W6.6 kmh W 6.9 mph11.1 kmh 30.11 in1019.6 mb 0.00 in0.0 mm 0.00 in0.0 mm 0.04 in1.0 mm
07:25 AM 48.2°F9.0°C 46.0°F7.8°C 92% 4.0 mph W6.4 kmh W 6.9 mph11.1 kmh 30.10 in1019.3 mb 0.00 in0.0 mm 0.00 in0.0 mm 0.04 in1.0 mm
07:20 AM 48.2°F9.0°C 46.0°F7.8°C 92% 2.5 mph WNW4.0 kmh WNW 6.9 mph11.1 kmh 30.10 in1019.3 mb 0.00 in0.0 mm 0.00 in0.0 mm 0.04 in1.0 mm
07:15 AM 48.4°F9.1°C 46.2°F7.9°C 92% 0.8 mph ESE1.3 kmh ESE 2.2 mph3.5 kmh 30.10 in1019.3 mb 0.00 in0.0 mm 0.00 in0.0 mm 0.04 in1.0 mm
07:10 AM 48.4°F9.1°C 46.2°F7.9°C 92% 0.8 mph NW1.3 kmh NW 2.2 mph3.5 kmh 30.09 in1019.0 mb 0.00 in0.0 mm 0.00 in0.0 mm 0.04 in1.0 mm
07:05 AM 48.4°F9.1°C 46.2°F7.9°C 92% 2.0 mph NE3.2 kmh NE 6.0 mph9.7 kmh 30.09 in1019.0 mb 0.00 in0.0 mm 0.00 in0.0 mm 0.04 in1.0 mm
07:00 AM 48.6°F9.2°C 46.3°F7.9°C 92% 2.5 mph NE4.0 kmh NE 6.0 mph9.7 kmh 30.09 in1019.0 mb 0.00 in0.0 mm 0.00 in0.0 mm 0.04 in1.0 mm
06:55 AM 48.6°F9.2°C 46.3°F7.9°C 92% 2.0 mph SW3.2 kmh SW 5.4 mph8.7 kmh 30.09 in1019.0 mb 0.00 in0.0 mm 0.00 in0.0 mm 0.04 in1.0 mm
06:50 AM 48.6°F9.2°C 46.3°F7.9°C 92% 3.1 mph WNW5.0 kmh WNW 6.0 mph9.7 kmh 30.08 in1018.6 mb 0.00 in0.0 mm 0.00 in0.0 mm 0.04 in1.0 mm
06:45 AM 48.6°F9.2°C 46.3°F7.9°C 92% 3.5 mph WNW5.6 kmh WNW 6.0 mph9.7 kmh 30.08 in1018.6 mb 0.00 in0.0 mm 0.00 in0.0 mm 0.04 in1.0 mm
06:40 AM 48.9°F9.4°C 46.7°F8.2°C 92% 3.6 mph W5.8 kmh W 6.9 mph11.1 kmh 30.08 in1018.6 mb 0.00 in0.0 mm 0.00 in0.0 mm 0.04 in1.0 mm
06:35 AM 49.1°F9.5°C 46.9°F8.3°C 92% 4.5 mph W7.2 kmh W 7.6 mph12.2 kmh 30.07 in1018.3 mb 0.00 in0.0 mm 0.00 in0.0 mm 0.04 in1.0 mm
06:30 AM 48.9°F9.4°C 46.7°F8.2°C 92% 3.9 mph W6.3 kmh W 7.6 mph12.2 kmh 30.07 in1018.3 mb 0.00 in0.0 mm 0.00 in0.0 mm 0.04 in1.0 mm
06:25 AM 49.1°F9.5°C 47.2°F8.4°C 93% 4.0 mph W6.4 kmh W 6.9 mph11.1 kmh 30.07 in1018.3 mb 0.00 in0.0 mm 0.00 in0.0 mm 0.04 in1.0 mm
06:20 AM 49.1°F9.5°C 47.2°F8.4°C 93% 4.9 mph WSW7.9 kmh WSW 7.6 mph12.2 kmh 30.07 in1018.3 mb 0.00 in0.0 mm 0.00 in0.0 mm 0.04 in1.0 mm
06:15 AM 49.1°F9.5°C 47.2°F8.4°C 93% 5.0 mph W8.0 kmh W 7.6 mph12.2 kmh 30.06 in1017.9 mb 0.00 in0.0 mm 0.00 in0.0 mm 0.04 in1.0 mm
06:10 AM 49.1°F9.5°C 47.2°F8.4°C 93% 4.4 mph WSW7.1 kmh WSW 7.6 mph12.2 kmh 30.06 in1017.9 mb 0.00 in0.0 mm 0.00 in0.0 mm 0.04 in1.0 mm
06:05 AM 49.1°F9.5°C 47.2°F8.4°C 93% 4.8 mph WSW7.7 kmh WSW 9.2 mph14.8 kmh 30.06 in1017.9 mb 0.00 in0.0 mm 0.00 in0.0 mm 0.04 in1.0 mm
06:00 AM 49.3°F9.6°C 47.3°F8.5°C 93% 7.0 mph WSW11.3 kmh WSW 12.1 mph19.5 kmh 30.05 in1017.6 mb 0.00 in0.0 mm 0.00 in0.0 mm 0.04 in1.0 mm
05:55 AM 49.3°F9.6°C 47.1°F8.4°C 92% 7.4 mph W11.9 kmh W 12.1 mph19.5 kmh 30.06 in1017.9 mb 0.00 in0.0 mm 0.00 in0.0 mm 0.04 in1.0 mm
05:50 AM 49.6°F9.8°C 47.7°F8.7°C 93% 7.2 mph W11.6 kmh W 9.8 mph15.8 kmh 30.05 in1017.6 mb 0.00 in0.0 mm 0.00 in0.0 mm 0.04 in1.0 mm
05:45 AM 49.6°F9.8°C 47.7°F8.7°C 93% 7.5 mph W12.1 kmh W 9.8 mph15.8 kmh 30.05 in1017.6 mb 0.00 in0.0 mm 0.00 in0.0 mm 0.04 in1.0 mm
05:40 AM 49.8°F9.9°C 48.2°F9.0°C 94% 8.9 mph NW14.3 kmh NW 13.0 mph20.9 kmh 30.04 in1017.3 mb 0.00 in0.0 mm 0.00 in0.0 mm 0.04 in1.0 mm
05:35 AM 50.0°F10.0°C 48.3°F9.1°C 94% 9.4 mph WNW15.1 kmh WNW 13.0 mph20.9 kmh 30.04 in1017.3 mb 0.00 in0.0 mm 0.00 in0.0 mm 0.04 in1.0 mm
05:30 AM 50.2°F10.1°C 48.8°F9.3°C 95% 8.8 mph WNW14.2 kmh WNW 12.1 mph19.5 kmh 30.04 in1017.3 mb 0.00 in0.0 mm 0.00 in0.0 mm 0.04 in1.0 mm
05:25 AM 50.4°F10.2°C 49.0°F9.4°C 95% 9.3 mph WNW15.0 kmh WNW 12.1 mph19.5 kmh 30.04 in1017.3 mb 0.00 in0.0 mm 0.00 in0.0 mm 0.04 in1.0 mm
05:20 AM 50.5°F10.3°C 49.2°F9.6°C 95% 7.4 mph WNW11.9 kmh WNW 12.1 mph19.5 kmh 30.04 in1017.3 mb 0.00 in0.0 mm 0.00 in0.0 mm 0.04 in1.0 mm
05:15 AM 50.5°F10.3°C 49.4°F9.7°C 96% 7.1 mph W11.4 kmh W 12.1 mph19.5 kmh 30.04 in1017.3 mb 0.00 in0.0 mm 0.00 in0.0 mm 0.04 in1.0 mm
05:10 AM 50.7°F10.4°C 49.6°F9.8°C 96% 8.8 mph WSW14.2 kmh WSW 12.1 mph19.5 kmh 30.03 in1016.9 mb 0.00 in0.0 mm 0.00 in0.0 mm 0.04 in1.0 mm
05:05 AM 50.9°F10.5°C 49.8°F9.9°C 96% 8.5 mph W13.7 kmh W 12.1 mph19.5 kmh 30.04 in1017.3 mb 0.00 in0.0 mm 0.00 in0.0 mm 0.04 in1.0 mm
05:00 AM 51.1°F10.6°C 50.3°F10.2°C 97% 7.9 mph W12.7 kmh W 11.4 mph18.3 kmh 30.03 in1016.9 mb 0.00 in0.0 mm 0.00 in0.0 mm 0.04 in1.0 mm
04:55 AM 51.3°F10.7°C 50.4°F10.2°C 97% 6.4 mph W10.3 kmh W 11.4 mph18.3 kmh 30.03 in1016.9 mb 0.00 in0.0 mm 0.00 in0.0 mm 0.04 in1.0 mm
04:50 AM 51.4°F10.8°C 50.9°F10.5°C 98% 4.3 mph W6.9 kmh W 6.0 mph9.7 kmh 30.02 in1016.6 mb 0.00 in0.0 mm 0.00 in0.0 mm 0.04 in1.0 mm
04:45 AM 51.6°F10.9°C 51.1°F10.6°C 98% 3.4 mph WSW5.5 kmh WSW 4.5 mph7.2 kmh 30.02 in1016.6 mb 0.01 in0.3 mm 0.00 in0.0 mm 0.04 in1.0 mm
04:40 AM 51.8°F11.0°C 51.3°F10.7°C 98% 3.4 mph WSW5.5 kmh WSW 6.9 mph11.1 kmh 30.02 in1016.6 mb 0.01 in0.3 mm 0.00 in0.0 mm 0.04 in1.0 mm
04:35 AM 51.8°F11.0°C 51.5°F10.8°C 99% 3.7 mph W6.0 kmh W 6.9 mph11.1 kmh 30.01 in1016.3 mb 0.01 in0.3 mm 0.00 in0.0 mm 0.04 in1.0 mm
04:30 AM 52.0°F11.1°C 51.7°F10.9°C 99% 3.9 mph W6.3 kmh W 5.3 mph8.5 kmh 30.01 in1016.3 mb 0.01 in0.3 mm 0.00 in0.0 mm 0.04 in1.0 mm
04:25 AM 52.2°F11.2°C 51.9°F11.1°C 99% 4.5 mph WNW7.2 kmh WNW 6.9 mph11.1 kmh 30.01 in1016.3 mb 0.01 in0.3 mm 0.00 in0.0 mm 0.04 in1.0 mm
04:20 AM 52.3°F11.3°C 52.1°F11.2°C 99% 4.0 mph W6.4 kmh W 6.9 mph11.1 kmh 30.01 in1016.3 mb 0.01 in0.3 mm 0.00 in0.0 mm 0.04 in1.0 mm
04:15 AM 52.5°F11.4°C 52.3°F11.3°C 99% 3.5 mph WSW5.6 kmh WSW 5.4 mph8.7 kmh 30.02 in1016.6 mb 0.01 in0.3 mm 0.00 in0.0 mm 0.04 in1.0 mm
04:10 AM 52.5°F11.4°C 52.3°F11.3°C 99% 3.7 mph W6.0 kmh W 5.4 mph8.7 kmh 30.01 in1016.3 mb 0.01 in0.3 mm 0.00 in0.0 mm 0.04 in1.0 mm
04:05 AM 52.5°F11.4°C 52.3°F11.3°C 99% 3.4 mph NW5.5 kmh NW 5.4 mph8.7 kmh 30.00 in1015.9 mb 0.02 in0.5 mm 0.00 in0.0 mm 0.04 in1.0 mm
04:00 AM 52.5°F11.4°C 52.3°F11.3°C 99% 3.8 mph NW6.1 kmh NW 5.4 mph8.7 kmh 30.00 in1015.9 mb 0.02 in0.5 mm 0.00 in0.0 mm 0.04 in1.0 mm
03:55 AM 52.3°F11.3°C 52.1°F11.2°C 99% 4.4 mph NW7.1 kmh NW 6.0 mph9.7 kmh 30.00 in1015.9 mb 0.02 in0.5 mm 0.00 in0.0 mm 0.04 in1.0 mm
03:50 AM 52.5°F11.4°C 52.3°F11.3°C 99% 4.3 mph NW6.9 kmh NW 6.0 mph9.7 kmh 30.01 in1016.3 mb 0.02 in0.5 mm 0.12 in3.0 mm 0.04 in1.0 mm
03:45 AM 52.5°F11.4°C 52.3°F11.3°C 99% 2.3 mph WNW3.7 kmh WNW 5.4 mph8.7 kmh 30.01 in1016.3 mb 0.01 in0.3 mm 0.00 in0.0 mm 0.02 in0.5 mm
03:40 AM 52.5°F11.4°C 52.3°F11.3°C 99% 0.4 mph NW0.6 kmh NW 4.5 mph7.2 kmh 30.01 in1016.3 mb 0.02 in0.5 mm 0.00 in0.0 mm 0.02 in0.5 mm
03:35 AM 52.5°F11.4°C 52.3°F11.3°C 99% Calm Calm -- 30.01 in1016.3 mb 0.02 in0.5 mm 0.00 in0.0 mm 0.02 in0.5 mm
03:30 AM 52.5°F11.4°C 52.3°F11.3°C 99% Calm Calm -- 30.01 in1016.3 mb 0.02 in0.5 mm 0.00 in0.0 mm 0.02 in0.5 mm
03:25 AM 52.5°F11.4°C 52.3°F11.3°C 99% Calm Calm -- 30.01 in1016.3 mb 0.02 in0.5 mm 0.00 in0.0 mm 0.02 in0.5 mm
03:20 AM 52.5°F11.4°C 52.3°F11.3°C 99% Calm Calm -- 30.01 in1016.3 mb 0.02 in0.5 mm 0.00 in0.0 mm 0.02 in0.5 mm
03:15 AM 52.5°F11.4°C 52.3°F11.3°C 99% Calm Calm -- 30.01 in1016.3 mb 0.02 in0.5 mm 0.00 in0.0 mm 0.02 in0.5 mm
03:10 AM 52.5°F11.4°C 52.3°F11.3°C 99% Calm Calm -- 30.00 in1015.9 mb 0.02 in0.5 mm 0.12 in3.0 mm 0.02 in0.5 mm
03:05 AM 52.5°F11.4°C 52.3°F11.3°C 99% Calm Calm -- 30.00 in1015.9 mb 0.01 in0.3 mm 0.00 in0.0 mm 0.01 in0.3 mm
03:00 AM 52.5°F11.4°C 52.3°F11.3°C 99% Calm Calm -- 30.01 in1016.3 mb 0.01 in0.3 mm 0.00 in0.0 mm 0.01 in0.3 mm
02:55 AM 52.7°F11.5°C 52.4°F11.3°C 99% Calm Calm -- 30.01 in1016.3 mb 0.01 in0.3 mm 0.00 in0.0 mm 0.01 in0.3 mm
02:50 AM 52.5°F11.4°C 52.3°F11.3°C 99% Calm Calm -- 30.01 in1016.3 mb 0.01 in0.3 mm 0.00 in0.0 mm 0.01 in0.3 mm
02:45 AM 52.7°F11.5°C 52.2°F11.2°C 98% Calm Calm -- 30.01 in1016.3 mb 0.01 in0.3 mm 0.12 in3.0 mm 0.01 in0.3 mm
02:40 AM 52.9°F11.6°C 52.6°F11.4°C 99% Calm Calm -- 30.01 in1016.3 mb 0.00 in0.0 mm 0.00 in0.0 mm 0.00 in0.0 mm
02:35 AM 52.7°F11.5°C 52.4°F11.3°C 99% Calm Calm -- 30.01 in1016.3 mb 0.00 in0.0 mm 0.00 in0.0 mm 0.00 in0.0 mm
02:30 AM 52.5°F11.4°C 52.3°F11.3°C 99% Calm Calm -- 30.01 in1016.3 mb 0.00 in0.0 mm 0.00 in0.0 mm 0.00 in0.0 mm
02:25 AM 52.3°F11.3°C 51.8°F11.0°C 98% Calm Calm -- 30.02 in1016.6 mb 0.00 in0.0 mm 0.00 in0.0 mm 0.00 in0.0 mm
02:20 AM 52.3°F11.3°C 51.8°F11.0°C 98% Calm Calm -- 30.01 in1016.3 mb 0.00 in0.0 mm 0.00 in0.0 mm 0.00 in0.0 mm
02:15 AM 52.3°F11.3°C 51.8°F11.0°C 98% Calm Calm -- 30.02 in1016.6 mb 0.00 in0.0 mm 0.00 in0.0 mm 0.00 in0.0 mm
02:10 AM 52.2°F11.2°C 51.6°F10.9°C 98% Calm Calm -- 30.01 in1016.3 mb 0.00 in0.0 mm 0.00 in0.0 mm 0.00 in0.0 mm
02:05 AM 52.3°F11.3°C 51.8°F11.0°C 98% Calm Calm -- 30.01 in1016.3 mb 0.00 in0.0 mm 0.00 in0.0 mm 0.00 in0.0 mm
02:00 AM 52.3°F11.3°C 51.8°F11.0°C 98% Calm Calm -- 30.01 in1016.3 mb 0.00 in0.0 mm 0.00 in0.0 mm 0.00 in0.0 mm
01:55 AM 52.2°F11.2°C 51.6°F10.9°C 98% Calm Calm -- 30.01 in1016.3 mb 0.00 in0.0 mm 0.00 in0.0 mm 0.00 in0.0 mm
01:50 AM 52.0°F11.1°C 51.4°F10.8°C 98% Calm Calm -- 30.02 in1016.6 mb 0.00 in0.0 mm 0.00 in0.0 mm 0.00 in0.0 mm
01:45 AM 52.0°F11.1°C 51.4°F10.8°C 98% Calm Calm -- 30.02 in1016.6 mb 0.00 in0.0 mm 0.00 in0.0 mm 0.00 in0.0 mm
01:40 AM 51.8°F11.0°C 51.3°F10.7°C 98% Calm Calm -- 30.02 in1016.6 mb 0.00 in0.0 mm 0.00 in0.0 mm 0.00 in0.0 mm
01:35 AM 51.6°F10.9°C 51.1°F10.6°C 98% Calm Calm -- 30.02 in1016.6 mb 0.00 in0.0 mm 0.00 in0.0 mm 0.00 in0.0 mm
01:30 AM 51.8°F11.0°C 51.3°F10.7°C 98% Calm Calm -- 30.02 in1016.6 mb 0.00 in0.0 mm 0.00 in0.0 mm 0.00 in0.0 mm
01:25 AM 51.8°F11.0°C 51.3°F10.7°C 98% Calm Calm -- 30.02 in1016.6 mb 0.00 in0.0 mm 0.00 in0.0 mm 0.00 in0.0 mm
01:20 AM 51.6°F10.9°C 51.1°F10.6°C 98% Calm Calm -- 30.02 in1016.6 mb 0.00 in0.0 mm 0.00 in0.0 mm 0.00 in0.0 mm
01:15 AM 51.6°F10.9°C 51.1°F10.6°C 98% Calm Calm -- 30.02 in1016.6 mb 0.00 in0.0 mm 0.00 in0.0 mm 0.00 in0.0 mm
01:10 AM 51.4°F10.8°C 50.9°F10.5°C 98% Calm Calm -- 30.02 in1016.6 mb 0.00 in0.0 mm 0.00 in0.0 mm 0.00 in0.0 mm
01:05 AM 51.1°F10.6°C 50.3°F10.2°C 97% Calm Calm -- 30.02 in1016.6 mb 0.00 in0.0 mm 0.00 in0.0 mm 0.00 in0.0 mm
01:00 AM 51.1°F10.6°C 50.3°F10.2°C 97% Calm Calm -- 30.02 in1016.6 mb 0.00 in0.0 mm 0.00 in0.0 mm 0.00 in0.0 mm
12:55 AM 51.1°F10.6°C 50.3°F10.2°C 97% Calm Calm -- 30.02 in1016.6 mb 0.00 in0.0 mm 0.00 in0.0 mm 0.00 in0.0 mm
12:50 AM 50.9°F10.5°C 50.1°F10.1°C 97% Calm Calm -- 30.02 in1016.6 mb 0.00 in0.0 mm 0.00 in0.0 mm 0.00 in0.0 mm
12:45 AM 51.1°F10.6°C 50.3°F10.2°C 97% Calm Calm -- 30.02 in1016.6 mb 0.00 in0.0 mm 0.00 in0.0 mm 0.00 in0.0 mm
12:40 AM 50.9°F10.5°C 50.1°F10.1°C 97% Calm Calm -- 30.02 in1016.6 mb 0.00 in0.0 mm 0.00 in0.0 mm 0.00 in0.0 mm
12:35 AM 50.7°F10.4°C 49.9°F9.9°C 97% Calm Calm -- 30.02 in1016.6 mb 0.00 in0.0 mm 0.00 in0.0 mm 0.00 in0.0 mm
12:30 AM 50.7°F10.4°C 49.6°F9.8°C 96% Calm Calm -- 30.02 in1016.6 mb 0.00 in0.0 mm 0.00 in0.0 mm 0.00 in0.0 mm
12:25 AM 50.7°F10.4°C 49.6°F9.8°C 96% Calm Calm -- 30.02 in1016.6 mb 0.00 in0.0 mm 0.00 in0.0 mm 0.00 in0.0 mm
12:20 AM 50.7°F10.4°C 49.6°F9.8°C 96% Calm Calm -- 30.02 in1016.6 mb 0.00 in0.0 mm 0.00 in0.0 mm 0.00 in0.0 mm
12:15 AM 50.7°F10.4°C 49.6°F9.8°C 96% Calm Calm -- 30.02 in1016.6 mb 0.00 in0.0 mm 0.00 in0.0 mm 0.00 in0.0 mm
12:10 AM 50.7°F10.4°C 49.6°F9.8°C 96% Calm Calm -- 30.02 in1016.6 mb 0.00 in0.0 mm 0.00 in0.0 mm 0.00 in0.0 mm
12:05 AM 50.7°F10.4°C 49.6°F9.8°C 96% Calm Calm -- 30.02 in1016.6 mb 0.00 in0.0 mm 0.00 in0.0 mm 0.00 in0.0 mm
12:00 AM 50.7°F10.4°C 49.6°F9.8°C 96% Calm Calm -- 30.02 in1016.6 mb 0.00 in0.0 mm 0.00 in0.0 mm 0.00 in0.0 mm